Aviation Digital Data Service (ADDS)

Output produced by METARs form (1329 UTC 15 November 2018)
found at http://www.aviationweather.gov/metar/data/
 
KGBD 151132Z 1512/1612 21009KT P6SM SKC 
     FM151800 33013KT P6SM SKC AMD LTD TO CLD VIS AND WIND
       
KGCC 151120Z 1512/1612 31010KT P6SM FEW200 WS020/32040KT 
     FM151600 32016G26KT P6SM SCT200 
     FM152300 29008KT P6SM SCT200 
     FM160300 22007KT P6SM BKN150
       
KGCK 151120Z 1512/1612 25010KT P6SM SKC 
     FM151900 35010G16KT P6SM SKC
       
KGCN 151120Z 1512/1612 VRB03KT 6SM FU FEW001 
     TEMPO 1512/1514 1/2SM FU 
     FM151600 06010KT P6SM FEW200 
     FM160100 VRB03KT P6SM SCT200
       
KGDV 151128Z 1512/1612 29015G23KT P6SM BKN050 
     FM152100 30012KT P6SM SCT045 
     FM160600 VRB05KT 5SM -SN OVC020
       
KGEG 151130Z 1512/1612 VRB03KT P6SM FEW005 SCT150 
     FM151400 15004KT 3SM BR BKN005 
     FM151700 20005KT P6SM BKN015 BKN150 
     FM160600 19004KT 6SM -SHRA OVC008
       
TAF KGFA 151201Z 1512/1618 24012KT 9999 SCT100 QNH3015INS 
     BECMG 1517/1518 24015G25KT 9999 BKN090 510009 QNH2988INS 
     BECMG 1605/1606 24012G18KT 9000 -SHRA BKN060 610609 510009 QNH2986INS 
     BECMG 1609/1610 27012G18KT 6000 -RASN OVC030 630309 510009 QNH2989INS 
     BECMG 1616/1617 31015G25KT 3200 -SHSN BLSN BKN010 610109 520009 QNH3013INS
TX10/1522Z TN04/1512Z
       
KGFK 151130Z 1512/1612 27006KT P6SM BKN120 
     FM151300 31009KT P6SM VCSH BKN070 
     FM151700 34014G23KT P6SM -SN OVC025 
     FM160300 32010KT P6SM BKN025
       
KGFL 151138Z 1512/1612 VRB03KT P6SM OVC250 
     FM152100 11005KT P6SM BKN040 OVC080 
     FM160000 03004KT 1 1/2SM -SN BKN015 OVC025 
     FM160500 01006KT 1SM -SN OVC007
       
KGGG 151120Z 1512/1612 21004KT P6SM SKC 
     FM151600 23008KT P6SM SKC 
     FM152100 22008KT P6SM SCT250 
     FM160000 20004KT P6SM BKN250
       
KGGW 151128Z 1512/1612 29010KT P6SM BKN060 
     FM151500 29007KT P6SM BKN035 
     FM160600 VRB06KT 5SM -SN OVC020
       
KGJT 151124Z 1512/1612 09005KT P6SM SKC 
     FM151900 29005KT P6SM SKC 
     FM160200 06005KT P6SM SKC 
     FM160600 11005KT P6SM SKC
       
KGKY 151120Z 1512/1612 20009KT P6SM FEW250
       
KGLD 151123Z 1512/1612 28008KT P6SM SKC 
     FM151800 35013KT P6SM FEW250 
     FM160200 32005KT P6SM SKC 
     FM160800 25005KT P6SM SKC
       
KGLH 151150Z 1512/1612 27006KT P6SM SKC
       
KGLS 151120Z 1512/1612 VRB05KT P6SM SKC
       
KGMU 151120Z 1512/1612 03015G22KT 4SM -RA SCT011 OVC040 
     TEMPO 1512/1514 2SM +RA OVC011 
     FM151400 02009G16KT P6SM VCSH OVC009 
     FM151900 01006KT P6SM BKN009 OVC011 
     FM160200 26007KT P6SM SCT018 
     FM160300 28008G18KT P6SM FEW027
       
KGNV 151301Z 1513/1612 05008KT P6SM VCSH BKN007 
     TEMPO 1513/1515 SCT007 BKN120 
     FM151500 32008KT P6SM VCSH SCT007 OVC015 
     FM152100 29007KT P6SM BKN025 OVC120
       
KGON 151124Z 1512/1612 04009KT P6SM OVC200 
     FM151600 09010KT P6SM OVC200 
     FM152000 09012G19KT 2SM -SNPL BKN015 OVC025 
     FM152200 08010KT 1SM -SNPL OVC010 
     TEMPO 1522/1524 -SN 
     FM160000 09020G28KT 2SM -RAPLSN OVC009 
     FM160200 08020G30KT 2SM -RA OVC009 
     FM160500 07025G34KT 3SM -RA BR OVC008 WS020/09055KT 
     FM161000 06022G31KT 4SM -RA BR OVC010
       
KGPT 151130Z 1512/1612 32008KT P6SM FEW014 
     FM151600 33009G15KT P6SM SKC 
     FM160000 32003KT P6SM SKC
       
KGRB 151136Z 1512/1612 19004KT P6SM SCT030 
     FM151600 19010G17KT P6SM SCT035 
     FM152100 19007KT P6SM SKC 
     FM160700 24007KT P6SM BKN035 
     FM160900 26008KT 3SM -SHSN BR OVC020 
     FM161100 28008KT 6SM -SHSN BKN030
       
TAF KGRF 151305Z 1513/1619 12009KT 9999 OVC020 QNH3030INS 
     BECMG 1518/1519 24009KT 9999 BKN030 QNH3024INS 
     BECMG 1600/1601 17009KT 9999 BKN015 OVC025 QNH3018INS TX12/1523Z TN07/1612Z
       
KGRI 151141Z 1512/1612 22005KT P6SM SKC 
     FM151500 29005KT P6SM FEW250 
     FM151800 32014G21KT P6SM SKC 
     FM152000 33020G28KT P6SM SKC 
     FM152300 31012KT P6SM SKC 
     FM160400 29006KT P6SM SKC
       
TAF KGRK 150800Z 1508/1614 22006KT 9999 SKC QNH3017INS 
     BECMG 1600/1601 20006KT 9999 FEW250 QNH3018INS TX17/1521Z TN00/1512Z
       
KGRR 151133Z 1512/1612 07007KT P6SM OVC150 
     FM151600 10007KT 4SM -SN OVC015 
     FM151800 10005KT 2SM -SN OVC007 
     FM152000 VRB05KT 1 1/2SM -SN BR OVC007 
     FM152300 19005KT 2SM -SN BR OVC007 
     FM160300 21007KT P6SM OVC007 
     FM160500 21008KT P6SM BKN025 OVC050 
     FM161000 23011KT 3SM -SHSN OVC005
       
TAF KGSB 151300Z 1513/1619 07015G25KT 6000 -RA OVC007 WS020/10050KT QNH2976INS 
     BECMG 1517/1518 05015G20KT 8000 -RA OVC006 WS020/17045K QNH2969INS 
     BECMG 1521/1522 26010G15KT 9999 NSW OVC010 QNH2970INS 
     BECMG 1602/1603 27012KT 9999 OVC015 QNH2979INS 
     BECMG 1607/1608 27010G15KT 9999 SKC QNH2987INS TX14/1518Z TN03/1612Z
       
KGSO 151136Z 1512/1612 03015G25KT 3SM -RA BR OVC007 WS020/07040KT 
     TEMPO 1512/1516 2SM RA BR 
     FM151800 02011KT 4SM -DZ BR OVC007 
     FM160000 VRB04KT P6SM OVC015 
     FM160600 29007KT P6SM SKC
       
KGSP 151120Z 1512/1612 03015G22KT 4SM -RA SCT011 OVC035 
     TEMPO 1512/1514 2SM +RA OVC011 
     FM151500 02009G16KT P6SM VCSH OVC009 
     FM151900 01006KT P6SM BKN009 OVC011 
     FM160200 26007KT P6SM SCT018 
     FM160300 28008G18KT P6SM FEW027
       
TAF KGTB 150900Z 1509/1615 VRB06KT 9999 FEW300 QNH3020INS 
     BECMG 1520/1521 17006KT 9999 BKN150 QNH3003INS 
     BECMG 1602/1603 13006KT 1600 -SN BKN015 OVC040 650605 QNH2995INS 
     BECMG 1605/1606 11006KT 1600 -SN OVC015 650159 QNH2970INS 
     BECMG 1612/1613 VRB06KT 4800 -SN BKN015 OVC040 650159 QNH2966INS
TXM01/1518Z TNM11/1512Z
       
KGTF 151125Z 1512/1612 24016KT P6SM BKN200 
     FM152300 24020G28KT P6SM BKN120 
     FM160900 26011KT P6SM VCSH SCT060 BKN080 
     FM161100 30010G19KT 4SM -RASN OVC025
       
KGTR 151150Z 1512/1612 30007KT P6SM OVC022 
     FM151900 29008KT P6SM SKC
       
KGUC 151124Z 1512/1612 06003KT P6SM SKC 
     FM151400 VRB03KT P6SM SKC 
     FM160200 02004KT P6SM SKC
       
KGUP 151120Z 1512/1612 VRB03KT P6SM SKC
       
TAF AMD KGUS 151210Z 1512/1617 08009KT 4800 -FZRA BKN009 OVC200 690001 620206
QNH3010INS 
     BECMG 1514/1515 07006KT 8000 -RASN OVC010 620109 QNH2997INS 
     BECMG 1517/1518 VRB03KT 6000 BR OVC007 620157 QNH2997INS WND 24012KT AFT
1603 TX03/1520Z TNM03/1609Z
       
KGWO 151150Z 1512/1612 28005KT P6SM BKN019 
     FM151400 28007KT P6SM SKC
       
KGYY 151130Z 1512/1612 09005KT 3SM -SN SCT020 OVC050 
     TEMPO 1512/1515 1 1/2SM -SN OVC018 
     FM151500 14004KT P6SM VCSH SCT009 OVC015 
     FM152100 21008KT P6SM BKN020 
     FM160200 22012KT P6SM SCT025 
     FM161100 27012G18KT P6SM BKN015